createdAt,value
2022-11-29T00:01:42.917Z,10.60
2022-11-29T00:04:12.671Z,10.66
2022-11-29T00:06:42.482Z,10.70
2022-11-29T00:09:13.463Z,10.72
2022-11-29T00:12:01.105Z,10.72
2022-11-29T00:14:31.000Z,10.71
2022-11-29T00:17:03.125Z,10.72
2022-11-29T00:19:32.546Z,10.73
2022-11-29T00:22:02.817Z,10.75
2022-11-29T00:24:32.731Z,10.78
2022-11-29T00:27:02.290Z,10.78
2022-11-29T00:29:31.385Z,10.75
2022-11-29T00:32:00.202Z,10.71
2022-11-29T00:34:28.534Z,10.66
2022-11-29T00:36:57.173Z,10.59
2022-11-29T00:39:26.921Z,10.49
2022-11-29T00:41:55.258Z,10.41
2022-11-29T00:44:24.481Z,10.33
2022-11-29T00:46:52.697Z,10.25
2022-11-29T00:49:20.870Z,10.19
2022-11-29T00:51:49.013Z,10.13
2022-11-29T00:54:17.491Z,10.09
2022-11-29T00:56:47.119Z,10.06
2022-11-29T00:59:15.483Z,10.06
2022-11-29T01:01:43.689Z,10.07
2022-11-29T01:04:11.942Z,10.10
2022-11-29T01:06:40.171Z,10.12
2022-11-29T01:09:08.357Z,10.12
2022-11-29T01:11:37.029Z,10.12
2022-11-29T01:14:06.986Z,10.09
2022-11-29T01:16:35.248Z,10.10
2022-11-29T01:19:04.029Z,10.11
2022-11-29T01:21:32.532Z,10.11
2022-11-29T01:24:01.806Z,10.09
2022-11-29T01:26:31.749Z,10.08
2022-11-29T01:29:00.707Z,10.05
2022-11-29T01:31:32.626Z,10.02
2022-11-29T01:34:03.794Z,9.99
2022-11-29T01:36:33.041Z,9.95
2022-11-29T01:39:02.228Z,9.91
2022-11-29T01:41:32.982Z,9.87
2022-11-29T01:44:05.771Z,9.81
2022-11-29T01:46:37.443Z,9.77
2022-11-29T01:49:10.577Z,9.74
2022-11-29T01:51:41.281Z,9.77
2022-11-29T01:54:11.299Z,9.82
2022-11-29T01:56:41.007Z,9.90
2022-11-29T01:59:12.706Z,10.01
2022-11-29T02:01:42.660Z,10.09
2022-11-29T02:04:11.060Z,10.16
2022-11-29T02:06:40.957Z,10.22
2022-11-29T02:09:19.730Z,10.23
2022-11-29T02:12:08.850Z,10.24
2022-11-29T02:14:50.085Z,10.29
2022-11-29T02:17:28.564Z,10.37
2022-11-29T02:20:19.258Z,10.43
2022-11-29T02:22:58.844Z,10.49
2022-11-29T02:25:43.147Z,10.53
2022-11-29T02:28:39.309Z,10.55
2022-11-29T02:31:53.720Z,10.59
2022-11-29T02:34:40.633Z,10.65
2022-11-29T02:37:31.014Z,10.68
2022-11-29T02:40:33.898Z,10.64
2022-11-29T02:43:36.521Z,10.59
2022-11-29T02:46:17.862Z,10.62
2022-11-29T02:48:56.786Z,10.69
2022-11-29T02:51:36.058Z,10.74
2022-11-29T02:54:13.307Z,10.80
2022-11-29T02:56:47.735Z,10.82
2022-11-29T02:59:26.114Z,10.84
2022-11-29T03:02:03.265Z,10.79
2022-11-29T03:04:35.349Z,10.72
2022-11-29T03:07:12.835Z,10.61
2022-11-29T03:09:46.391Z,10.52
2022-11-29T03:12:24.457Z,10.45
2022-11-29T03:15:01.745Z,10.41
2022-11-29T03:17:42.454Z,10.41
2022-11-29T03:20:28.020Z,10.44
2022-11-29T03:23:19.400Z,10.51
2022-11-29T03:25:53.528Z,10.60
2022-11-29T03:28:28.660Z,10.67
2022-11-29T03:31:02.777Z,10.70
2022-11-29T03:33:37.069Z,10.70
2022-11-29T03:36:11.683Z,10.71
2022-11-29T03:38:43.619Z,10.71
2022-11-29T03:41:21.504Z,10.74
2022-11-29T03:43:56.563Z,10.74
2022-11-29T03:46:31.885Z,10.73
2022-11-29T03:49:04.535Z,10.73
2022-11-29T03:51:46.679Z,10.75
2022-11-29T03:54:22.684Z,10.76
2022-11-29T03:56:51.504Z,10.78
2022-11-29T03:59:32.337Z,10.81
2022-11-29T04:02:37.336Z,10.82
2022-11-29T04:05:37.596Z,10.84
2022-11-29T04:08:29.042Z,10.85
2022-11-29T04:11:25.358Z,10.89
2022-11-29T04:14:29.027Z,10.90
2022-11-29T04:17:38.856Z,10.88
2022-11-29T04:20:51.352Z,10.84
2022-11-29T04:23:41.961Z,10.76
2022-11-29T04:26:40.978Z,10.68
2022-11-29T04:29:19.451Z,10.60
2022-11-29T04:32:11.676Z,10.48
2022-11-29T04:35:00.220Z,10.38
2022-11-29T04:37:49.605Z,10.34
2022-11-29T04:40:33.685Z,10.37
2022-11-29T04:43:15.002Z,10.46
2022-11-29T04:46:12.017Z,10.48
2022-11-29T04:49:16.276Z,10.51
2022-11-29T04:52:03.604Z,10.53
2022-11-29T04:54:37.717Z,10.56
2022-11-29T04:57:11.576Z,10.56
2022-11-29T04:59:47.279Z,10.52
2022-11-29T05:02:34.733Z,10.44
2022-11-29T05:05:15.624Z,10.38
2022-11-29T05:07:52.820Z,10.34
2022-11-29T05:10:30.190Z,10.33
2022-11-29T05:13:08.228Z,10.29
2022-11-29T05:16:09.244Z,10.22
2022-11-29T05:18:54.898Z,10.14
2022-11-29T05:21:33.071Z,10.08
2022-11-29T05:24:19.210Z,9.99
2022-11-29T05:26:56.453Z,9.90
2022-11-29T05:29:32.001Z,9.84
2022-11-29T05:32:22.188Z,9.75
2022-11-29T05:35:15.073Z,9.65
2022-11-29T05:37:49.693Z,9.56
2022-11-29T05:40:47.773Z,9.48
2022-11-29T05:43:43.134Z,9.41
2022-11-29T05:46:19.925Z,9.36
2022-11-29T05:48:59.003Z,9.30
2022-11-29T05:51:41.527Z,9.24
2022-11-29T05:54:24.213Z,9.16
2022-11-29T05:57:01.274Z,9.12
2022-11-29T05:59:31.412Z,9.07
2022-11-29T06:02:12.723Z,9.01
2022-11-29T06:04:56.122Z,8.98
2022-11-29T06:07:30.965Z,8.92
2022-11-29T06:10:04.087Z,8.82
2022-11-29T06:12:38.185Z,8.76
2022-11-29T06:15:25.531Z,8.71
2022-11-29T06:18:13.729Z,8.66
2022-11-29T06:21:04.012Z,8.63
2022-11-29T06:23:53.343Z,8.59
2022-11-29T06:26:38.866Z,8.58
2022-11-29T06:29:26.143Z,8.55
2022-11-29T06:32:03.999Z,8.52
2022-11-29T06:34:44.313Z,8.51
2022-11-29T06:37:21.439Z,8.47
2022-11-29T06:39:50.300Z,8.45
2022-11-29T06:42:18.831Z,8.40
2022-11-29T06:44:50.120Z,8.36
2022-11-29T06:47:25.773Z,8.38
2022-11-29T06:50:01.047Z,8.40
2022-11-29T06:52:42.751Z,8.40
2022-11-29T06:55:19.865Z,8.36
2022-11-29T06:57:59.991Z,8.34
2022-11-29T07:00:37.558Z,8.34
2022-11-29T07:03:42.175Z,8.30
2022-11-29T07:06:16.750Z,8.28
2022-11-29T07:08:48.602Z,8.29
2022-11-29T07:11:17.717Z,8.30
2022-11-29T07:13:46.856Z,8.27
2022-11-29T07:16:22.962Z,8.23
2022-11-29T07:18:59.832Z,8.18
2022-11-29T07:21:44.477Z,8.15
2022-11-29T07:24:23.778Z,8.12
2022-11-29T07:26:59.736Z,8.10
2022-11-29T07:29:37.317Z,8.10
2022-11-29T07:32:15.296Z,8.10
2022-11-29T07:34:54.177Z,8.08
2022-11-29T07:37:30.006Z,8.02
2022-11-29T07:40:04.494Z,7.98
2022-11-29T07:42:43.078Z,7.97
2022-11-29T07:45:18.449Z,7.92
2022-11-29T07:47:47.040Z,7.88
2022-11-29T07:50:15.603Z,7.89
2022-11-29T07:52:43.901Z,7.93
2022-11-29T07:55:18.940Z,8.01
2022-11-29T07:57:48.296Z,8.08
2022-11-29T08:00:18.833Z,8.17
2022-11-29T08:02:47.753Z,8.23
2022-11-29T08:05:16.130Z,8.34
2022-11-29T08:07:44.617Z,8.41
2022-11-29T08:10:16.775Z,8.49
2022-11-29T08:12:48.005Z,8.60
2022-11-29T08:15:16.540Z,8.71
2022-11-29T08:17:44.933Z,8.78
2022-11-29T08:20:14.975Z,8.76
2022-11-29T08:22:43.881Z,8.83
2022-11-29T08:25:13.024Z,8.95
2022-11-29T08:27:42.721Z,9.11
2022-11-29T08:30:11.395Z,9.22
2022-11-29T08:32:39.886Z,9.31
2022-11-29T08:35:08.461Z,9.38
2022-11-29T08:37:37.302Z,9.44
2022-11-29T08:40:06.046Z,9.53
2022-11-29T08:42:34.329Z,9.63
2022-11-29T08:45:04.355Z,9.74
2022-11-29T08:47:38.877Z,9.83
2022-11-29T08:50:12.297Z,9.91
2022-11-29T08:53:00.405Z,9.98
2022-11-29T08:55:33.053Z,10.02
2022-11-29T08:58:05.878Z,10.09
2022-11-29T09:00:36.383Z,10.16
2022-11-29T09:03:23.643Z,10.29
2022-11-29T09:05:52.178Z,10.47
2022-11-29T09:08:21.659Z,10.63
2022-11-29T09:10:50.093Z,10.80
2022-11-29T09:13:18.802Z,10.97
2022-11-29T09:15:48.560Z,11.12
2022-11-29T09:18:18.703Z,11.29
2022-11-29T09:20:47.121Z,11.50
2022-11-29T09:23:15.404Z,11.72
2022-11-29T09:25:49.836Z,12.17
2022-11-29T09:28:18.240Z,13.12
2022-11-29T09:30:46.505Z,13.45
2022-11-29T09:33:16.243Z,13.45
2022-11-29T09:35:44.506Z,13.36
2022-11-29T09:38:13.358Z,13.29
2022-11-29T09:40:48.055Z,13.22
2022-11-29T09:43:27.846Z,13.17
2022-11-29T09:46:03.359Z,13.15
2022-11-29T09:49:00.358Z,13.14
2022-11-29T09:51:32.692Z,13.22
2022-11-29T09:54:20.463Z,13.23
2022-11-29T09:56:53.457Z,13.31
2022-11-29T09:59:27.571Z,13.30
2022-11-29T10:02:04.517Z,13.28
2022-11-29T10:04:40.451Z,13.29
2022-11-29T10:07:18.586Z,13.33
2022-11-29T10:09:52.443Z,13.39
2022-11-29T10:12:29.039Z,13.41
2022-11-29T10:15:04.254Z,13.41
2022-11-29T10:17:38.366Z,13.47
2022-11-29T10:20:14.258Z,13.55
2022-11-29T10:22:49.630Z,13.60
2022-11-29T10:25:24.123Z,13.66
2022-11-29T10:27:53.417Z,13.70
2022-11-29T10:30:22.140Z,13.73
2022-11-29T10:32:56.504Z,13.74
2022-11-29T10:35:26.423Z,13.75
2022-11-29T10:38:29.263Z,13.70
2022-11-29T10:40:48.738Z,13.52
2022-11-29T10:43:17.353Z,13.52
2022-11-29T10:45:50.623Z,13.50
2022-11-29T10:48:22.332Z,13.49
2022-11-29T10:50:53.757Z,13.50
2022-11-29T10:53:25.338Z,13.53
2022-11-29T10:56:00.980Z,13.57
2022-11-29T10:58:30.336Z,13.61
2022-11-29T11:01:01.134Z,13.59
2022-11-29T11:03:36.947Z,13.51
2022-11-29T11:06:12.873Z,13.47
2022-11-29T11:08:44.685Z,13.47
2022-11-29T11:11:13.994Z,13.52
2022-11-29T11:13:42.845Z,13.60
2022-11-29T11:16:16.955Z,13.66
2022-11-29T11:18:46.044Z,13.66
2022-11-29T11:21:19.296Z,13.65
2022-11-29T11:23:54.825Z,13.63
2022-11-29T11:26:25.655Z,13.64
2022-11-29T11:28:59.699Z,13.59
2022-11-29T11:31:30.943Z,13.59
2022-11-29T11:34:24.991Z,13.56
2022-11-29T11:36:55.133Z,13.57
2022-11-29T11:39:25.141Z,13.54
2022-11-29T11:42:11.333Z,13.56
2022-11-29T11:44:49.452Z,13.62
2022-11-29T11:47:21.032Z,13.63
2022-11-29T11:49:51.765Z,13.67
2022-11-29T11:52:24.594Z,13.76
2022-11-29T11:54:55.656Z,13.86
2022-11-29T11:57:26.313Z,13.91
2022-11-29T11:59:58.712Z,13.93
2022-11-29T12:02:41.820Z,14.08
2022-11-29T12:05:15.666Z,14.02
2022-11-29T12:08:08.423Z,14.09
2022-11-29T12:10:40.532Z,14.13
2022-11-29T12:13:18.574Z,14.21
2022-11-29T12:15:50.015Z,14.34
2022-11-29T12:18:27.583Z,14.41
2022-11-29T12:20:59.546Z,14.64
2022-11-29T12:23:36.480Z,14.81
2022-11-29T12:26:13.655Z,14.91
2022-11-29T12:28:48.383Z,14.98
2022-11-29T12:31:31.680Z,14.97
2022-11-29T12:34:13.129Z,15.06
2022-11-29T12:36:49.604Z,15.01
2022-11-29T12:39:49.671Z,14.87
2022-11-29T12:42:27.550Z,14.92
2022-11-29T12:45:04.792Z,14.96
2022-11-29T12:47:48.832Z,14.76
2022-11-29T12:50:33.388Z,14.66
2022-11-29T12:53:15.036Z,14.63
2022-11-29T12:55:54.837Z,14.60
2022-11-29T12:58:31.870Z,14.64
2022-11-29T13:01:09.253Z,14.61
2022-11-29T13:03:46.068Z,14.55
2022-11-29T13:06:30.564Z,14.35
2022-11-29T13:09:22.665Z,14.31
2022-11-29T13:11:57.807Z,14.29
2022-11-29T13:14:42.611Z,14.21
2022-11-29T13:17:26.606Z,14.12
2022-11-29T13:19:57.833Z,14.09
2022-11-29T13:22:39.597Z,14.05
2022-11-29T13:25:17.062Z,14.01
2022-11-29T13:27:58.574Z,14.00
2022-11-29T13:30:27.426Z,13.99
2022-11-29T13:33:03.815Z,13.96
2022-11-29T13:35:40.070Z,13.94
2022-11-29T13:38:16.117Z,13.93
2022-11-29T13:40:55.677Z,13.90
2022-11-29T13:43:31.883Z,13.90
2022-11-29T13:46:08.884Z,13.92
2022-11-29T13:48:48.965Z,13.95
2022-11-29T13:51:31.069Z,13.96
2022-11-29T13:54:02.698Z,13.98
2022-11-29T13:56:43.111Z,14.01
2022-11-29T13:59:20.650Z,14.09
2022-11-29T14:01:53.852Z,14.13
2022-11-29T14:04:31.443Z,14.17
2022-11-29T14:07:12.476Z,14.20
2022-11-29T14:09:57.080Z,14.23
2022-11-29T14:12:39.721Z,14.19
2022-11-29T14:15:22.032Z,14.08
2022-11-29T14:17:54.148Z,14.11
2022-11-29T14:20:59.201Z,14.04
2022-11-29T14:23:44.139Z,14.06
2022-11-29T14:26:28.956Z,14.01
2022-11-29T14:28:58.893Z,14.05
2022-11-29T14:31:52.304Z,14.12
2022-11-29T14:34:34.083Z,14.16
2022-11-29T14:37:21.754Z,14.09
2022-11-29T14:39:54.064Z,14.04
2022-11-29T14:42:24.433Z,13.87
2022-11-29T14:44:54.736Z,13.72
2022-11-29T14:47:34.495Z,13.60
2022-11-29T14:50:07.563Z,13.52
2022-11-29T14:52:39.963Z,13.43
2022-11-29T14:55:09.723Z,13.23
2022-11-29T14:58:17.072Z,13.15
2022-11-29T15:00:57.169Z,13.07
2022-11-29T15:03:33.116Z,12.99
2022-11-29T15:06:10.675Z,12.89
2022-11-29T15:08:48.118Z,12.78
2022-11-29T15:11:25.280Z,12.70
2022-11-29T15:13:59.955Z,12.62
2022-11-29T15:16:54.698Z,12.52
2022-11-29T15:19:57.834Z,12.38
2022-11-29T15:22:28.536Z,12.20
2022-11-29T15:25:00.829Z,12.19
2022-11-29T15:27:30.648Z,12.12
2022-11-29T15:30:00.215Z,12.05
2022-11-29T15:32:31.156Z,11.97
2022-11-29T15:35:01.213Z,11.89
2022-11-29T15:37:44.655Z,11.81
2022-11-29T15:40:16.302Z,11.76
2022-11-29T15:42:48.639Z,11.67
2022-11-29T15:45:32.739Z,11.59
2022-11-29T15:48:28.967Z,11.49
2022-11-29T15:51:04.903Z,11.45
2022-11-29T15:53:39.328Z,11.37
2022-11-29T15:56:15.934Z,11.31
2022-11-29T15:58:46.990Z,11.25
2022-11-29T16:01:20.726Z,11.18
2022-11-29T16:03:51.697Z,11.13
2022-11-29T16:06:27.596Z,11.09
2022-11-29T16:08:56.459Z,11.06
2022-11-29T16:11:28.900Z,11.02
2022-11-29T16:14:03.826Z,10.86
2022-11-29T16:16:35.548Z,10.85
2022-11-29T16:19:19.239Z,10.80
2022-11-29T16:22:00.722Z,10.74
2022-11-29T16:24:29.275Z,10.70
2022-11-29T16:26:58.554Z,10.67
2022-11-29T16:29:31.068Z,10.63
2022-11-29T16:32:00.431Z,10.58
2022-11-29T16:34:33.064Z,10.52
2022-11-29T16:37:04.002Z,10.32
2022-11-29T16:39:32.599Z,10.28
2022-11-29T16:42:14.911Z,10.22
2022-11-29T16:45:05.047Z,10.14
2022-11-29T16:47:49.161Z,10.13
2022-11-29T16:50:21.078Z,10.13
2022-11-29T16:52:56.392Z,10.14
2022-11-29T16:55:25.985Z,10.18
2022-11-29T16:57:54.243Z,10.22
2022-11-29T17:00:31.946Z,10.28
2022-11-29T17:03:00.665Z,10.31
2022-11-29T17:05:29.425Z,10.33
2022-11-29T17:07:59.547Z,10.35
2022-11-29T17:10:29.185Z,10.36
2022-11-29T17:12:58.472Z,10.43
2022-11-29T17:15:26.731Z,10.42
2022-11-29T17:17:55.095Z,10.47
2022-11-29T17:20:24.132Z,10.53
2022-11-29T17:22:53.176Z,10.62
2022-11-29T17:25:22.856Z,10.70
2022-11-29T17:27:51.276Z,10.78
2022-11-29T17:30:19.868Z,10.87
2022-11-29T17:32:48.147Z,10.95
2022-11-29T17:35:16.680Z,11.00
2022-11-29T17:37:44.969Z,11.05
2022-11-29T17:40:15.412Z,11.05
2022-11-29T17:42:45.255Z,11.04
2022-11-29T17:45:13.571Z,11.08
2022-11-29T17:47:41.870Z,11.12
2022-11-29T17:50:11.410Z,11.17
2022-11-29T17:52:39.873Z,11.19
2022-11-29T17:55:10.140Z,11.19
2022-11-29T17:57:38.573Z,11.18
2022-11-29T18:00:11.413Z,11.22
2022-11-29T18:02:40.221Z,11.27
2022-11-29T18:05:09.467Z,11.32
2022-11-29T18:07:58.016Z,11.35
2022-11-29T18:10:27.020Z,11.37
2022-11-29T18:12:55.691Z,11.40
2022-11-29T18:15:25.436Z,11.43
2022-11-29T18:17:53.753Z,11.45
2022-11-29T18:20:21.975Z,11.45
2022-11-29T18:22:50.282Z,11.44
2022-11-29T18:25:38.060Z,11.46
2022-11-29T18:28:11.393Z,11.41
2022-11-29T18:30:41.482Z,11.45
2022-11-29T18:33:09.957Z,11.45
2022-11-29T18:35:38.234Z,11.47
2022-11-29T18:38:15.291Z,11.50
2022-11-29T18:40:45.880Z,11.51
2022-11-29T18:43:17.756Z,11.51
2022-11-29T18:45:48.934Z,11.49
2022-11-29T18:48:17.328Z,11.48
2022-11-29T18:50:45.898Z,11.53
2022-11-29T18:53:14.681Z,11.53
2022-11-29T18:55:42.985Z,11.52
2022-11-29T18:58:11.255Z,11.51
2022-11-29T19:00:40.970Z,11.49
2022-11-29T19:03:12.882Z,11.49
2022-11-29T19:05:41.204Z,11.46
2022-11-29T19:08:09.355Z,11.46
2022-11-29T19:10:38.929Z,11.47
2022-11-29T19:13:08.010Z,11.45
2022-11-29T19:15:36.282Z,11.46
2022-11-29T19:18:04.484Z,11.43
2022-11-29T19:20:34.791Z,11.37
2022-11-29T19:23:03.044Z,11.33
2022-11-29T19:25:31.206Z,11.35
2022-11-29T19:27:59.564Z,11.34
2022-11-29T19:30:28.987Z,11.33
2022-11-29T19:32:57.235Z,11.34
2022-11-29T19:35:25.500Z,11.30
2022-11-29T19:37:55.173Z,11.27
2022-11-29T19:40:23.470Z,11.28
2022-11-29T19:42:51.709Z,11.25
2022-11-29T19:45:19.950Z,11.26
2022-11-29T19:47:48.194Z,11.21
2022-11-29T19:50:16.755Z,11.19
2022-11-29T19:52:45.012Z,11.12
2022-11-29T19:55:14.629Z,11.13
2022-11-29T19:57:44.808Z,11.10
2022-11-29T20:00:14.345Z,11.08
2022-11-29T20:02:42.961Z,10.97
2022-11-29T20:05:12.668Z,11.00
2022-11-29T20:07:41.216Z,11.01
2022-11-29T20:10:10.110Z,11.02
2022-11-29T20:12:40.135Z,10.96
2022-11-29T20:15:09.522Z,10.99
2022-11-29T20:17:38.967Z,10.98
2022-11-29T20:20:08.615Z,10.99
2022-11-29T20:22:37.287Z,10.90
2022-11-29T20:25:06.782Z,10.95
2022-11-29T20:27:35.718Z,10.95
2022-11-29T20:30:06.126Z,10.96
2022-11-29T20:32:36.417Z,10.88
2022-11-29T20:35:05.584Z,10.86
2022-11-29T20:37:49.485Z,10.86
2022-11-29T20:40:21.310Z,10.73
2022-11-29T20:43:06.312Z,10.66
2022-11-29T20:45:37.618Z,10.54
2022-11-29T20:48:13.239Z,10.56
2022-11-29T20:50:45.125Z,10.53
2022-11-29T20:53:27.596Z,10.48
2022-11-29T20:55:57.109Z,10.44
2022-11-29T20:58:26.583Z,10.39
2022-11-29T21:00:56.914Z,10.33
2022-11-29T21:03:25.736Z,10.28
2022-11-29T21:05:55.677Z,10.28
2022-11-29T21:08:27.239Z,10.24
2022-11-29T21:10:55.983Z,10.19
2022-11-29T21:13:24.871Z,10.19
2022-11-29T21:15:53.737Z,10.18
2022-11-29T21:18:26.191Z,10.21
2022-11-29T21:21:07.846Z,10.21
2022-11-29T21:23:46.536Z,10.20
2022-11-29T21:26:17.990Z,10.25
2022-11-29T21:28:58.721Z,10.26
2022-11-29T21:31:28.558Z,10.30
2022-11-29T21:33:58.908Z,10.32
2022-11-29T21:36:27.168Z,10.36
2022-11-29T21:38:55.694Z,10.33
2022-11-29T21:41:24.746Z,10.36
2022-11-29T21:44:08.681Z,10.39
2022-11-29T21:46:37.126Z,10.41
2022-11-29T21:49:06.880Z,10.37
2022-11-29T21:51:35.068Z,10.39
2022-11-29T21:54:03.411Z,10.42
2022-11-29T21:56:31.838Z,10.42
2022-11-29T21:59:00.076Z,10.42
2022-11-29T22:01:30.057Z,10.37
2022-11-29T22:03:58.391Z,10.33
2022-11-29T22:06:29.454Z,10.32
2022-11-29T22:09:00.712Z,10.30
2022-11-29T22:11:35.571Z,10.35
2022-11-29T22:14:14.888Z,10.36
2022-11-29T22:16:44.345Z,10.32
2022-11-29T22:19:14.467Z,10.30
2022-11-29T22:21:47.054Z,10.32
2022-11-29T22:24:16.066Z,10.24
2022-11-29T22:26:44.627Z,10.32
2022-11-29T22:29:14.241Z,10.34
2022-11-29T22:31:42.920Z,10.35
2022-11-29T22:34:11.645Z,10.37
2022-11-29T22:36:40.652Z,10.34
2022-11-29T22:39:10.527Z,10.34
2022-11-29T22:41:41.041Z,10.29
2022-11-29T22:44:09.641Z,10.31
2022-11-29T22:46:41.282Z,10.27
2022-11-29T22:49:10.661Z,10.16
2022-11-29T22:51:39.748Z,10.17
2022-11-29T22:54:11.594Z,10.18
2022-11-29T22:56:42.322Z,10.16
2022-11-29T22:59:11.092Z,10.14
2022-11-29T23:01:40.833Z,10.12
2022-11-29T23:04:11.602Z,10.15
2022-11-29T23:06:42.321Z,10.23
2022-11-29T23:09:16.099Z,10.23
2022-11-29T23:11:46.170Z,10.29
2022-11-29T23:14:15.917Z,10.25
2022-11-29T23:16:44.683Z,10.25
2022-11-29T23:19:12.993Z,10.30
2022-11-29T23:21:44.745Z,10.26
2022-11-29T23:24:15.575Z,10.26
2022-11-29T23:26:45.978Z,10.28
2022-11-29T23:29:16.034Z,10.29
2022-11-29T23:31:44.613Z,10.28
2022-11-29T23:34:13.126Z,10.31
2022-11-29T23:36:41.614Z,10.30
2022-11-29T23:39:09.992Z,10.30
2022-11-29T23:41:39.649Z,10.19
2022-11-29T23:44:09.393Z,10.14
2022-11-29T23:46:39.555Z,10.18
2022-11-29T23:49:07.823Z,10.18
2022-11-29T23:51:37.327Z,10.29
2022-11-29T23:54:06.539Z,10.30
2022-11-29T23:56:35.588Z,10.25
2022-11-29T23:59:05.840Z,10.29
